首页
METAR-TAF:

METAR-TAF

机场 :

朱麗安娜公主國際機場

荷屬聖馬丁, 荷属安的列斯

纬度: 18-03N, 经度: 063-07W, 海拔: 4米

当前天气观测

该预报发布于16分钟前的21:00 UTC
风速6节,风向东转东南,在之间变化
温度 30°C
湿度 62%
气压 1017 hPa
能见度10公里或以上
少量云层高于2200英尺

METAR: TNCM 182100Z 12006KT 090V170 9999 FEW022 30/22 Q1017 A3004 NOSIG

时间: 17:16 (21:16 UTC)

预报

该预报发布于3小时和56分钟前的17:20 UTC
预报有效从18日的 18点(UTC)到 19日的 18点(UTC)
风速12节,风向东南
能見度: 10公里
散云层高于2200英尺
从 18日的 2330点(UTC)
风速10节,风向
能見度: 10公里
少量云层高于1800英尺
从 19日的 0400点(UTC)
风速8节,风向
能見度: 10公里
少量云层高于1800英尺
散云层高于3500英尺
附近有阵雨
从 19日的 1400点(UTC)
风速12节,风向东转东南
能見度: 10公里
散云层高于2200英尺
散云层高于4000英尺

TAF: TNCM 181720Z 1818/1918 13012KT P6SM SCT022 FM182330 10010KT P6SM FEW018 FM190400 09008KT P6SM VCSH FEW018 SCT035 FM191400 11012KT P6SM SCT022 SCT040

超过4000个机场的气象观测和天气预报(METAR&TAF报告)。

可查询的气象台以黄色和红色小点在地图上表示。

将鼠标移到小点上方,可查看气象台名称。

然后点击查看天气观测和预报。

如需切换地图:点击带黑十字的绿色按钮放大地图;点击带横线的绿色按钮缩小地图;或者点击绿色箭头查看邻近地区的地图。


METAR-TAF: